sensor_id;sensor_type;location;lat;lon;timestamp;temperature;humidity
58582;DHT22;44361;51.476;5.700;2022-08-23T00:01:21;18.10;99.90
58582;DHT22;44361;51.476;5.700;2022-08-23T00:03:48;18.10;99.90
58582;DHT22;44361;51.476;5.700;2022-08-23T00:06:15;18.20;99.90
58582;DHT22;44361;51.476;5.700;2022-08-23T00:08:41;18.20;99.90
58582;DHT22;44361;51.476;5.700;2022-08-23T00:11:45;18.10;99.90
58582;DHT22;44361;51.476;5.700;2022-08-23T00:14:17;18.00;99.90
58582;DHT22;44361;51.476;5.700;2022-08-23T00:16:44;18.00;99.90
58582;DHT22;44361;51.476;5.700;2022-08-23T00:19:11;17.90;99.90
58582;DHT22;44361;51.476;5.700;2022-08-23T00:21:39;17.90;99.90
58582;DHT22;44361;51.476;5.700;2022-08-23T00:24:05;17.80;99.90
58582;DHT22;44361;51.476;5.700;2022-08-23T00:27:00;17.70;99.90
58582;DHT22;44361;51.476;5.700;2022-08-23T00:29:31;17.70;99.90
58582;DHT22;44361;51.476;5.700;2022-08-23T00:31:57;17.60;99.90
58582;DHT22;44361;51.476;5.700;2022-08-23T00:34:23;17.60;99.90
58582;DHT22;44361;51.476;5.700;2022-08-23T00:36:49;17.60;99.90
58582;DHT22;44361;51.476;5.700;2022-08-23T00:39:16;17.50;99.90
58582;DHT22;44361;51.476;5.700;2022-08-23T00:41:43;17.50;99.90
58582;DHT22;44361;51.476;5.700;2022-08-23T00:44:32;17.40;99.90
58582;DHT22;44361;51.476;5.700;2022-08-23T00:47:17;17.40;99.90
58582;DHT22;44361;51.476;5.700;2022-08-23T00:55:26;17.30;99.90
58582;DHT22;44361;51.476;5.700;2022-08-23T00:57:53;17.20;99.90
58582;DHT22;44361;51.476;5.700;2022-08-23T01:00:19;17.20;99.90
58582;DHT22;44361;51.476;5.700;2022-08-23T01:02:45;17.20;99.90
58582;DHT22;44361;51.476;5.700;2022-08-23T01:05:13;17.20;99.90
58582;DHT22;44361;51.476;5.700;2022-08-23T01:07:51;17.10;99.90
58582;DHT22;44361;51.476;5.700;2022-08-23T01:12:53;17.10;99.90
58582;DHT22;44361;51.476;5.700;2022-08-23T01:15:29;17.10;99.90
58582;DHT22;44361;51.476;5.700;2022-08-23T01:18:08;17.10;99.90
58582;DHT22;44361;51.476;5.700;2022-08-23T01:20:42;17.10;99.90
58582;DHT22;44361;51.476;5.700;2022-08-23T01:25:47;17.00;99.90
58582;DHT22;44361;51.476;5.700;2022-08-23T01:28:14;17.00;99.90
58582;DHT22;44361;51.476;5.700;2022-08-23T01:30:42;17.00;99.90
58582;DHT22;44361;51.476;5.700;2022-08-23T01:33:08;17.00;99.90
58582;DHT22;44361;51.476;5.700;2022-08-23T01:35:41;16.90;99.90
58582;DHT22;44361;51.476;5.700;2022-08-23T01:38:08;16.90;99.90
58582;DHT22;44361;51.476;5.700;2022-08-23T01:40:36;16.90;99.90
58582;DHT22;44361;51.476;5.700;2022-08-23T01:43:02;16.80;99.90
58582;DHT22;44361;51.476;5.700;2022-08-23T01:45:28;16.80;99.90
58582;DHT22;44361;51.476;5.700;2022-08-23T01:47:54;16.70;99.90
58582;DHT22;44361;51.476;5.700;2022-08-23T01:50:20;16.70;99.90
58582;DHT22;44361;51.476;5.700;2022-08-23T01:52:46;16.70;99.90
58582;DHT22;44361;51.476;5.700;2022-08-23T01:55:11;16.70;99.90
58582;DHT22;44361;51.476;5.700;2022-08-23T01:57:39;16.60;99.90
58582;DHT22;44361;51.476;5.700;2022-08-23T02:00:06;16.60;99.90
58582;DHT22;44361;51.476;5.700;2022-08-23T02:02:32;16.60;99.90
58582;DHT22;44361;51.476;5.700;2022-08-23T02:04:58;16.50;99.90
58582;DHT22;44361;51.476;5.700;2022-08-23T02:07:27;16.50;99.90
58582;DHT22;44361;51.476;5.700;2022-08-23T02:09:54;16.50;99.90
58582;DHT22;44361;51.476;5.700;2022-08-23T02:12:21;16.50;99.90
58582;DHT22;44361;51.476;5.700;2022-08-23T02:14:46;16.50;99.90
58582;DHT22;44361;51.476;5.700;2022-08-23T02:17:12;16.50;99.90
58582;DHT22;44361;51.476;5.700;2022-08-23T02:19:39;16.50;99.90
58582;DHT22;44361;51.476;5.700;2022-08-23T02:22:06;16.50;99.90
58582;DHT22;44361;51.476;5.700;2022-08-23T02:24:32;16.40;99.90
58582;DHT22;44361;51.476;5.700;2022-08-23T02:27:02;16.40;99.90
58582;DHT22;44361;51.476;5.700;2022-08-23T02:29:29;16.40;99.90
58582;DHT22;44361;51.476;5.700;2022-08-23T02:31:56;16.40;99.90
58582;DHT22;44361;51.476;5.700;2022-08-23T02:34:21;16.30;99.90
58582;DHT22;44361;51.476;5.700;2022-08-23T02:36:47;16.30;99.90
58582;DHT22;44361;51.476;5.700;2022-08-23T02:39:15;16.30;99.90
58582;DHT22;44361;51.476;5.700;2022-08-23T02:41:42;16.30;99.90
58582;DHT22;44361;51.476;5.700;2022-08-23T02:44:08;16.20;99.90
58582;DHT22;44361;51.476;5.700;2022-08-23T02:46:35;16.10;99.90
58582;DHT22;44361;51.476;5.700;2022-08-23T02:49:02;16.10;99.90
58582;DHT22;44361;51.476;5.700;2022-08-23T02:51:28;16.10;99.90
58582;DHT22;44361;51.476;5.700;2022-08-23T02:53:53;16.00;99.90
58582;DHT22;44361;51.476;5.700;2022-08-23T02:56:19;16.00;99.90
58582;DHT22;44361;51.476;5.700;2022-08-23T02:58:45;16.00;99.90
58582;DHT22;44361;51.476;5.700;2022-08-23T03:01:19;16.00;99.90
58582;DHT22;44361;51.476;5.700;2022-08-23T03:03:46;16.00;99.90
58582;DHT22;44361;51.476;5.700;2022-08-23T03:06:13;15.90;99.90
58582;DHT22;44361;51.476;5.700;2022-08-23T03:08:38;16.00;99.90
58582;DHT22;44361;51.476;5.700;2022-08-23T03:11:13;16.00;99.90
58582;DHT22;44361;51.476;5.700;2022-08-23T03:13:41;16.00;99.90
58582;DHT22;44361;51.476;5.700;2022-08-23T03:16:07;16.00;99.90
58582;DHT22;44361;51.476;5.700;2022-08-23T03:18:35;15.90;99.90
58582;DHT22;44361;51.476;5.700;2022-08-23T03:21:01;15.90;99.90
58582;DHT22;44361;51.476;5.700;2022-08-23T03:23:27;15.90;99.90
58582;DHT22;44361;51.476;5.700;2022-08-23T03:25:55;15.90;99.90
58582;DHT22;44361;51.476;5.700;2022-08-23T03:28:21;15.90;99.90
58582;DHT22;44361;51.476;5.700;2022-08-23T03:30:47;16.00;99.90
58582;DHT22;44361;51.476;5.700;2022-08-23T03:33:13;16.00;99.90
58582;DHT22;44361;51.476;5.700;2022-08-23T03:35:38;16.00;99.90
58582;DHT22;44361;51.476;5.700;2022-08-23T03:38:04;16.00;99.90
58582;DHT22;44361;51.476;5.700;2022-08-23T03:40:30;16.00;99.90
58582;DHT22;44361;51.476;5.700;2022-08-23T03:42:55;16.00;99.90
58582;DHT22;44361;51.476;5.700;2022-08-23T03:45:21;16.10;99.90
58582;DHT22;44361;51.476;5.700;2022-08-23T03:47:46;16.10;99.90
58582;DHT22;44361;51.476;5.700;2022-08-23T03:50:12;16.10;99.90
58582;DHT22;44361;51.476;5.700;2022-08-23T03:52:38;16.20;99.90
58582;DHT22;44361;51.476;5.700;2022-08-23T03:55:03;16.20;99.90
58582;DHT22;44361;51.476;5.700;2022-08-23T03:57:29;16.30;99.90
58582;DHT22;44361;51.476;5.700;2022-08-23T03:59:55;16.30;99.90
58582;DHT22;44361;51.476;5.700;2022-08-23T04:02:20;16.40;99.90
58582;DHT22;44361;51.476;5.700;2022-08-23T04:04:46;16.40;99.90
58582;DHT22;44361;51.476;5.700;2022-08-23T04:07:11;16.40;99.90
58582;DHT22;44361;51.476;5.700;2022-08-23T04:09:37;16.50;99.90
58582;DHT22;44361;51.476;5.700;2022-08-23T04:12:03;16.40;99.90
58582;DHT22;44361;51.476;5.700;2022-08-23T04:14:29;16.40;99.90
58582;DHT22;44361;51.476;5.700;2022-08-23T04:16:54;16.40;99.90
58582;DHT22;44361;51.476;5.700;2022-08-23T04:19:20;16.40;99.90
58582;DHT22;44361;51.476;5.700;2022-08-23T04:21:49;16.40;99.90
58582;DHT22;44361;51.476;5.700;2022-08-23T04:24:15;16.30;99.90
58582;DHT22;44361;51.476;5.700;2022-08-23T04:26:41;16.40;99.90
58582;DHT22;44361;51.476;5.700;2022-08-23T04:29:08;16.30;99.90
58582;DHT22;44361;51.476;5.700;2022-08-23T04:31:33;16.20;99.90
58582;DHT22;44361;51.476;5.700;2022-08-23T04:34:00;16.20;99.90
58582;DHT22;44361;51.476;5.700;2022-08-23T04:36:29;16.20;99.90
58582;DHT22;44361;51.476;5.700;2022-08-23T04:38:56;16.10;99.90
58582;DHT22;44361;51.476;5.700;2022-08-23T04:41:21;16.10;99.90
58582;DHT22;44361;51.476;5.700;2022-08-23T04:44:05;16.00;99.90
58582;DHT22;44361;51.476;5.700;2022-08-23T04:46:31;16.00;99.90
58582;DHT22;44361;51.476;5.700;2022-08-23T04:48:56;15.90;99.90
58582;DHT22;44361;51.476;5.700;2022-08-23T04:51:23;15.90;99.90
58582;DHT22;44361;51.476;5.700;2022-08-23T04:53:49;15.90;99.90
58582;DHT22;44361;51.476;5.700;2022-08-23T04:56:15;16.00;99.90
58582;DHT22;44361;51.476;5.700;2022-08-23T04:58:40;16.10;99.90
58582;DHT22;44361;51.476;5.700;2022-08-23T05:01:08;16.20;99.90
58582;DHT22;44361;51.476;5.700;2022-08-23T05:03:35;16.30;99.90
58582;DHT22;44361;51.476;5.700;2022-08-23T05:06:01;16.40;99.90
58582;DHT22;44361;51.476;5.700;2022-08-23T05:08:29;16.60;99.90
58582;DHT22;44361;51.476;5.700;2022-08-23T05:11:02;16.70;99.90
58582;DHT22;44361;51.476;5.700;2022-08-23T05:13:29;16.80;99.90
58582;DHT22;44361;51.476;5.700;2022-08-23T05:15:55;17.00;99.90
58582;DHT22;44361;51.476;5.700;2022-08-23T05:18:21;17.10;99.90
58582;DHT22;44361;51.476;5.700;2022-08-23T05:20:46;17.20;99.90
58582;DHT22;44361;51.476;5.700;2022-08-23T05:23:12;17.40;99.90
58582;DHT22;44361;51.476;5.700;2022-08-23T05:25:38;17.60;99.90
58582;DHT22;44361;51.476;5.700;2022-08-23T05:28:22;17.80;99.90
58582;DHT22;44361;51.476;5.700;2022-08-23T05:31:00;18.00;99.90
58582;DHT22;44361;51.476;5.700;2022-08-23T05:33:26;18.30;99.90
58582;DHT22;44361;51.476;5.700;2022-08-23T05:35:53;18.50;99.90
58582;DHT22;44361;51.476;5.700;2022-08-23T05:38:19;18.60;99.90
58582;DHT22;44361;51.476;5.700;2022-08-23T05:40:51;18.60;99.90
58582;DHT22;44361;51.476;5.700;2022-08-23T05:43:17;18.70;99.90
58582;DHT22;44361;51.476;5.700;2022-08-23T05:45:44;18.90;99.90
58582;DHT22;44361;51.476;5.700;2022-08-23T05:48:10;19.00;99.90
58582;DHT22;44361;51.476;5.700;2022-08-23T05:50:36;19.20;99.90
58582;DHT22;44361;51.476;5.700;2022-08-23T05:53:02;19.60;99.90
58582;DHT22;44361;51.476;5.700;2022-08-23T05:55:28;19.80;99.90
58582;DHT22;44361;51.476;5.700;2022-08-23T05:57:54;19.90;99.90
58582;DHT22;44361;51.476;5.700;2022-08-23T06:00:19;20.00;99.90
58582;DHT22;44361;51.476;5.700;2022-08-23T06:02:46;20.00;99.90
58582;DHT22;44361;51.476;5.700;2022-08-23T06:05:12;20.00;99.90
58582;DHT22;44361;51.476;5.700;2022-08-23T06:07:38;20.00;99.90
58582;DHT22;44361;51.476;5.700;2022-08-23T06:10:04;19.80;99.90
58582;DHT22;44361;51.476;5.700;2022-08-23T06:12:31;19.70;99.90
58582;DHT22;44361;51.476;5.700;2022-08-23T06:14:58;19.80;99.90
58582;DHT22;44361;51.476;5.700;2022-08-23T06:17:23;19.90;99.90
58582;DHT22;44361;51.476;5.700;2022-08-23T06:19:49;20.00;99.90
58582;DHT22;44361;51.476;5.700;2022-08-23T06:22:14;20.10;99.90
58582;DHT22;44361;51.476;5.700;2022-08-23T06:24:40;20.20;99.90
58582;DHT22;44361;51.476;5.700;2022-08-23T06:27:05;20.10;99.90
58582;DHT22;44361;51.476;5.700;2022-08-23T06:29:31;20.10;99.90
58582;DHT22;44361;51.476;5.700;2022-08-23T06:31:57;20.20;99.90
58582;DHT22;44361;51.476;5.700;2022-08-23T06:34:31;20.60;99.90
58582;DHT22;44361;51.476;5.700;2022-08-23T06:37:03;21.00;99.90
58582;DHT22;44361;51.476;5.700;2022-08-23T06:39:30;21.30;99.90
58582;DHT22;44361;51.476;5.700;2022-08-23T06:42:02;21.50;99.90
58582;DHT22;44361;51.476;5.700;2022-08-23T06:44:29;21.80;99.90
58582;DHT22;44361;51.476;5.700;2022-08-23T06:46:55;21.70;99.90
58582;DHT22;44361;51.476;5.700;2022-08-23T06:49:22;21.80;99.90
58582;DHT22;44361;51.476;5.700;2022-08-23T06:51:53;21.50;99.90
58582;DHT22;44361;51.476;5.700;2022-08-23T06:54:22;21.60;99.90
58582;DHT22;44361;51.476;5.700;2022-08-23T06:56:48;21.70;99.90
58582;DHT22;44361;51.476;5.700;2022-08-23T06:59:15;21.60;99.90
58582;DHT22;44361;51.476;5.700;2022-08-23T07:01:51;21.70;99.90
58582;DHT22;44361;51.476;5.700;2022-08-23T07:04:23;21.90;99.90
58582;DHT22;44361;51.476;5.700;2022-08-23T07:06:49;22.00;99.90
58582;DHT22;44361;51.476;5.700;2022-08-23T07:09:15;21.90;99.90
58582;DHT22;44361;51.476;5.700;2022-08-23T07:11:41;22.00;99.90
58582;DHT22;44361;51.476;5.700;2022-08-23T07:14:12;22.10;99.90
58582;DHT22;44361;51.476;5.700;2022-08-23T07:16:41;22.20;99.90
58582;DHT22;44361;51.476;5.700;2022-08-23T07:19:08;22.20;99.90
58582;DHT22;44361;51.476;5.700;2022-08-23T07:21:34;22.30;99.90
58582;DHT22;44361;51.476;5.700;2022-08-23T07:23:59;22.60;99.90
58582;DHT22;44361;51.476;5.700;2022-08-23T07:26:26;22.80;99.90
58582;DHT22;44361;51.476;5.700;2022-08-23T07:28:52;22.70;99.90
58582;DHT22;44361;51.476;5.700;2022-08-23T07:31:24;22.80;99.90
58582;DHT22;44361;51.476;5.700;2022-08-23T07:33:53;23.00;99.90
58582;DHT22;44361;51.476;5.700;2022-08-23T07:36:20;23.10;99.90
58582;DHT22;44361;51.476;5.700;2022-08-23T07:38:46;23.30;99.90
58582;DHT22;44361;51.476;5.700;2022-08-23T07:41:13;23.60;99.90
58582;DHT22;44361;51.476;5.700;2022-08-23T07:43:39;23.40;99.90
58582;DHT22;44361;51.476;5.700;2022-08-23T07:46:06;23.30;99.90
58582;DHT22;44361;51.476;5.700;2022-08-23T07:48:33;23.30;99.90
58582;DHT22;44361;51.476;5.700;2022-08-23T07:51:01;23.30;99.90
58582;DHT22;44361;51.476;5.700;2022-08-23T07:53:28;23.40;99.90
58582;DHT22;44361;51.476;5.700;2022-08-23T07:55:54;23.70;99.90
58582;DHT22;44361;51.476;5.700;2022-08-23T07:58:20;23.90;99.90
58582;DHT22;44361;51.476;5.700;2022-08-23T08:00:46;24.00;99.90
58582;DHT22;44361;51.476;5.700;2022-08-23T08:03:13;24.30;99.90
58582;DHT22;44361;51.476;5.700;2022-08-23T08:05:39;24.40;99.90
58582;DHT22;44361;51.476;5.700;2022-08-23T08:08:05;24.70;99.90
58582;DHT22;44361;51.476;5.700;2022-08-23T08:10:31;24.80;99.90
58582;DHT22;44361;51.476;5.700;2022-08-23T08:12:57;24.90;99.90
58582;DHT22;44361;51.476;5.700;2022-08-23T08:15:22;24.90;99.50
58582;DHT22;44361;51.476;5.700;2022-08-23T08:17:49;24.90;99.50
58582;DHT22;44361;51.476;5.700;2022-08-23T08:20:17;24.90;98.80
58582;DHT22;44361;51.476;5.700;2022-08-23T08:22:42;25.00;98.90
58582;DHT22;44361;51.476;5.700;2022-08-23T08:25:09;25.20;98.80
58582;DHT22;44361;51.476;5.700;2022-08-23T08:27:35;25.50;98.70
58582;DHT22;44361;51.476;5.700;2022-08-23T08:30:02;25.80;98.90
58582;DHT22;44361;51.476;5.700;2022-08-23T08:32:28;25.80;98.30
58582;DHT22;44361;51.476;5.700;2022-08-23T08:34:53;25.50;98.50
58582;DHT22;44361;51.476;5.700;2022-08-23T08:37:19;25.00;98.60
58582;DHT22;44361;51.476;5.700;2022-08-23T08:39:44;24.70;99.30
58582;DHT22;44361;51.476;5.700;2022-08-23T08:42:18;24.40;99.80
58582;DHT22;44361;51.476;5.700;2022-08-23T08:44:56;24.40;99.90
58582;DHT22;44361;51.476;5.700;2022-08-23T08:47:41;24.60;99.90
58582;DHT22;44361;51.476;5.700;2022-08-23T08:50:30;25.00;99.90
58582;DHT22;44361;51.476;5.700;2022-08-23T08:53:14;25.00;99.00
58582;DHT22;44361;51.476;5.700;2022-08-23T08:55:48;25.30;98.70
58582;DHT22;44361;51.476;5.700;2022-08-23T08:58:24;25.50;99.50
58582;DHT22;44361;51.476;5.700;2022-08-23T09:00:53;25.50;98.80
58582;DHT22;44361;51.476;5.700;2022-08-23T09:03:20;25.60;99.80
58582;DHT22;44361;51.476;5.700;2022-08-23T09:09:04;26.00;99.40
58582;DHT22;44361;51.476;5.700;2022-08-23T09:14:32;26.70;98.20
58582;DHT22;44361;51.476;5.700;2022-08-23T09:17:05;26.50;96.20
58582;DHT22;44361;51.476;5.700;2022-08-23T09:19:38;26.60;96.80
58582;DHT22;44361;51.476;5.700;2022-08-23T09:22:10;26.60;97.30
58582;DHT22;44361;51.476;5.700;2022-08-23T09:24:38;26.80;97.10
58582;DHT22;44361;51.476;5.700;2022-08-23T09:27:04;27.00;96.70
58582;DHT22;44361;51.476;5.700;2022-08-23T09:29:34;27.10;96.60
58582;DHT22;44361;51.476;5.700;2022-08-23T09:32:04;26.90;95.50
58582;DHT22;44361;51.476;5.700;2022-08-23T09:39:41;27.10;94.80
58582;DHT22;44361;51.476;5.700;2022-08-23T09:42:29;27.10;95.10
58582;DHT22;44361;51.476;5.700;2022-08-23T09:44:55;27.20;94.90
58582;DHT22;44361;51.476;5.700;2022-08-23T09:47:38;27.20;94.20
58582;DHT22;44361;51.476;5.700;2022-08-23T09:50:15;27.30;94.80
58582;DHT22;44361;51.476;5.700;2022-08-23T09:52:42;27.70;94.10
58582;DHT22;44361;51.476;5.700;2022-08-23T09:55:26;27.60;93.00
58582;DHT22;44361;51.476;5.700;2022-08-23T09:57:52;27.50;93.30
58582;DHT22;44361;51.476;5.700;2022-08-23T10:00:33;27.40;92.80
58582;DHT22;44361;51.476;5.700;2022-08-23T10:03:23;27.50;93.30
58582;DHT22;44361;51.476;5.700;2022-08-23T10:05:54;27.60;91.40
58582;DHT22;44361;51.476;5.700;2022-08-23T10:08:22;27.70;91.70
58582;DHT22;44361;51.476;5.700;2022-08-23T10:10:52;27.80;92.20
58582;DHT22;44361;51.476;5.700;2022-08-23T10:13:19;27.80;92.30
58582;DHT22;44361;51.476;5.700;2022-08-23T10:26:44;28.20;90.50
58582;DHT22;44361;51.476;5.700;2022-08-23T10:29:36;28.20;89.70
58582;DHT22;44361;51.476;5.700;2022-08-23T10:32:32;28.40;89.90
58582;DHT22;44361;51.476;5.700;2022-08-23T10:38:00;28.00;89.30
58582;DHT22;44361;51.476;5.700;2022-08-23T10:46:00;28.20;88.20
58582;DHT22;44361;51.476;5.700;2022-08-23T10:48:29;28.50;87.40
58582;DHT22;44361;51.476;5.700;2022-08-23T10:50:59;28.70;87.30
58582;DHT22;44361;51.476;5.700;2022-08-23T10:56:00;28.70;84.70
58582;DHT22;44361;51.476;5.700;2022-08-23T11:04:25;28.70;85.40
58582;DHT22;44361;51.476;5.700;2022-08-23T11:06:59;28.90;83.90
58582;DHT22;44361;51.476;5.700;2022-08-23T11:17:38;28.60;85.70
58582;DHT22;44361;51.476;5.700;2022-08-23T11:20:08;28.90;84.40
58582;DHT22;44361;51.476;5.700;2022-08-23T11:30:56;29.20;81.00
58582;DHT22;44361;51.476;5.700;2022-08-23T11:33:35;29.20;81.60
58582;DHT22;44361;51.476;5.700;2022-08-23T11:41:26;29.20;81.70
58582;DHT22;44361;51.476;5.700;2022-08-23T11:57:47;30.10;79.50
58582;DHT22;44361;51.476;5.700;2022-08-23T12:00:27;30.00;79.80
58582;DHT22;44361;51.476;5.700;2022-08-23T12:16:06;30.10;78.20
58582;DHT22;44361;51.476;5.700;2022-08-23T12:18:34;29.70;79.30
58582;DHT22;44361;51.476;5.700;2022-08-23T12:21:03;29.30;80.00
58582;DHT22;44361;51.476;5.700;2022-08-23T12:23:31;29.30;80.80
58582;DHT22;44361;51.476;5.700;2022-08-23T12:29:03;29.90;79.20
58582;DHT22;44361;51.476;5.700;2022-08-23T12:31:45;30.00;79.10
58582;DHT22;44361;51.476;5.700;2022-08-23T12:34:24;29.90;78.90
58582;DHT22;44361;51.476;5.700;2022-08-23T12:37:21;29.90;77.70
58582;DHT22;44361;51.476;5.700;2022-08-23T12:39:56;30.30;78.00
58582;DHT22;44361;51.476;5.700;2022-08-23T12:42:33;30.80;75.40
58582;DHT22;44361;51.476;5.700;2022-08-23T12:47:38;31.10;73.50
58582;DHT22;44361;51.476;5.700;2022-08-23T12:52:38;30.30;74.60
58582;DHT22;44361;51.476;5.700;2022-08-23T12:55:16;30.10;74.90
58582;DHT22;44361;51.476;5.700;2022-08-23T12:57:48;30.00;75.20
58582;DHT22;44361;51.476;5.700;2022-08-23T13:00:23;30.00;75.20
58582;DHT22;44361;51.476;5.700;2022-08-23T13:02:58;29.60;74.70
58582;DHT22;44361;51.476;5.700;2022-08-23T13:05:53;29.70;75.50
58582;DHT22;44361;51.476;5.700;2022-08-23T13:08:21;30.10;76.40
58582;DHT22;44361;51.476;5.700;2022-08-23T13:10:48;30.30;74.60
58582;DHT22;44361;51.476;5.700;2022-08-23T13:13:19;30.40;74.20
58582;DHT22;44361;51.476;5.700;2022-08-23T13:15:57;30.60;73.40
58582;DHT22;44361;51.476;5.700;2022-08-23T13:18:40;30.30;74.00
58582;DHT22;44361;51.476;5.700;2022-08-23T13:21:29;30.40;74.00
58582;DHT22;44361;51.476;5.700;2022-08-23T13:24:00;30.60;73.50
58582;DHT22;44361;51.476;5.700;2022-08-23T13:26:39;30.30;73.50
58582;DHT22;44361;51.476;5.700;2022-08-23T13:29:10;29.80;74.40
58582;DHT22;44361;51.476;5.700;2022-08-23T13:32:02;29.70;74.40
58582;DHT22;44361;51.476;5.700;2022-08-23T13:37:13;29.20;75.90
58582;DHT22;44361;51.476;5.700;2022-08-23T13:39:48;29.00;76.70
58582;DHT22;44361;51.476;5.700;2022-08-23T13:42:24;29.20;76.60
58582;DHT22;44361;51.476;5.700;2022-08-23T13:44:50;29.50;76.50
58582;DHT22;44361;51.476;5.700;2022-08-23T13:47:22;29.90;75.70
58582;DHT22;44361;51.476;5.700;2022-08-23T13:49:49;30.40;74.70
58582;DHT22;44361;51.476;5.700;2022-08-23T13:52:15;30.90;72.90
58582;DHT22;44361;51.476;5.700;2022-08-23T13:54:41;31.00;72.70
58582;DHT22;44361;51.476;5.700;2022-08-23T13:57:12;31.10;71.90
58582;DHT22;44361;51.476;5.700;2022-08-23T13:59:40;30.90;72.30
58582;DHT22;44361;51.476;5.700;2022-08-23T14:02:12;30.90;72.50
58582;DHT22;44361;51.476;5.700;2022-08-23T14:04:41;30.90;72.40
58582;DHT22;44361;51.476;5.700;2022-08-23T14:07:07;30.70;72.10
58582;DHT22;44361;51.476;5.700;2022-08-23T14:09:34;30.60;72.50
58582;DHT22;44361;51.476;5.700;2022-08-23T14:12:04;30.70;72.20
58582;DHT22;44361;51.476;5.700;2022-08-23T14:14:32;30.70;72.60
58582;DHT22;44361;51.476;5.700;2022-08-23T14:16:57;30.50;72.50
58582;DHT22;44361;51.476;5.700;2022-08-23T14:19:23;30.60;72.50
58582;DHT22;44361;51.476;5.700;2022-08-23T14:21:49;30.50;71.90
58582;DHT22;44361;51.476;5.700;2022-08-23T14:24:15;30.10;72.40
58582;DHT22;44361;51.476;5.700;2022-08-23T14:26:41;30.20;72.90
58582;DHT22;44361;51.476;5.700;2022-08-23T14:29:07;30.20;71.40
58582;DHT22;44361;51.476;5.700;2022-08-23T14:31:33;30.00;72.50
58582;DHT22;44361;51.476;5.700;2022-08-23T14:33:58;29.90;72.70
58582;DHT22;44361;51.476;5.700;2022-08-23T14:36:24;30.00;72.30
58582;DHT22;44361;51.476;5.700;2022-08-23T14:38:50;30.00;73.10
58582;DHT22;44361;51.476;5.700;2022-08-23T14:41:18;30.30;72.00
58582;DHT22;44361;51.476;5.700;2022-08-23T14:43:45;30.60;71.50
58582;DHT22;44361;51.476;5.700;2022-08-23T14:46:11;30.80;70.60
58582;DHT22;44361;51.476;5.700;2022-08-23T14:48:37;30.90;70.10
58582;DHT22;44361;51.476;5.700;2022-08-23T14:51:03;31.10;70.70
58582;DHT22;44361;51.476;5.700;2022-08-23T14:53:31;31.20;69.80
58582;DHT22;44361;51.476;5.700;2022-08-23T14:55:58;31.20;69.50
58582;DHT22;44361;51.476;5.700;2022-08-23T14:58:24;31.10;69.80
58582;DHT22;44361;51.476;5.700;2022-08-23T15:00:50;30.90;70.30
58582;DHT22;44361;51.476;5.700;2022-08-23T15:03:24;30.70;71.10
58582;DHT22;44361;51.476;5.700;2022-08-23T15:05:50;30.30;70.60
58582;DHT22;44361;51.476;5.700;2022-08-23T15:08:17;29.90;72.40
58582;DHT22;44361;51.476;5.700;2022-08-23T15:10:43;29.90;72.40
58582;DHT22;44361;51.476;5.700;2022-08-23T15:13:08;29.60;72.20
58582;DHT22;44361;51.476;5.700;2022-08-23T15:15:34;29.40;73.30
58582;DHT22;44361;51.476;5.700;2022-08-23T15:18:02;29.20;73.40
58582;DHT22;44361;51.476;5.700;2022-08-23T15:20:33;29.30;73.50
58582;DHT22;44361;51.476;5.700;2022-08-23T15:23:00;29.40;73.30
58582;DHT22;44361;51.476;5.700;2022-08-23T15:25:29;30.00;73.10
58582;DHT22;44361;51.476;5.700;2022-08-23T15:27:54;30.40;71.50
58582;DHT22;44361;51.476;5.700;2022-08-23T15:30:21;30.70;71.20
58582;DHT22;44361;51.476;5.700;2022-08-23T15:32:47;30.90;70.00
58582;DHT22;44361;51.476;5.700;2022-08-23T15:35:13;30.90;70.60
58582;DHT22;44361;51.476;5.700;2022-08-23T15:37:39;31.10;69.80
58582;DHT22;44361;51.476;5.700;2022-08-23T15:40:06;30.80;69.80
58582;DHT22;44361;51.476;5.700;2022-08-23T15:42:32;30.60;70.60
58582;DHT22;44361;51.476;5.700;2022-08-23T15:44:58;30.60;71.00
58582;DHT22;44361;51.476;5.700;2022-08-23T15:47:40;30.60;71.00
58582;DHT22;44361;51.476;5.700;2022-08-23T15:50:08;30.60;70.90
58582;DHT22;44361;51.476;5.700;2022-08-23T15:52:33;30.60;71.50
58582;DHT22;44361;51.476;5.700;2022-08-23T15:54:59;30.60;70.90
58582;DHT22;44361;51.476;5.700;2022-08-23T15:57:26;30.60;71.20
58582;DHT22;44361;51.476;5.700;2022-08-23T15:59:53;30.60;70.50
58582;DHT22;44361;51.476;5.700;2022-08-23T16:02:19;30.50;70.50
58582;DHT22;44361;51.476;5.700;2022-08-23T16:04:45;30.40;71.00
58582;DHT22;44361;51.476;5.700;2022-08-23T16:07:14;30.20;71.50
58582;DHT22;44361;51.476;5.700;2022-08-23T16:09:40;30.30;71.40
58582;DHT22;44361;51.476;5.700;2022-08-23T16:12:06;30.30;72.10
58582;DHT22;44361;51.476;5.700;2022-08-23T16:14:33;30.40;72.20
58582;DHT22;44361;51.476;5.700;2022-08-23T16:16:59;30.50;71.50
58582;DHT22;44361;51.476;5.700;2022-08-23T16:19:25;30.60;71.90
58582;DHT22;44361;51.476;5.700;2022-08-23T16:21:52;30.70;71.60
58582;DHT22;44361;51.476;5.700;2022-08-23T16:24:22;30.60;72.10
58582;DHT22;44361;51.476;5.700;2022-08-23T16:26:48;30.50;71.80
58582;DHT22;44361;51.476;5.700;2022-08-23T16:29:16;30.30;72.50
58582;DHT22;44361;51.476;5.700;2022-08-23T16:31:43;30.40;72.30
58582;DHT22;44361;51.476;5.700;2022-08-23T16:34:14;30.20;72.70
58582;DHT22;44361;51.476;5.700;2022-08-23T16:36:42;30.20;73.20
58582;DHT22;44361;51.476;5.700;2022-08-23T16:39:09;30.10;72.80
58582;DHT22;44361;51.476;5.700;2022-08-23T16:41:35;29.90;73.50
58582;DHT22;44361;51.476;5.700;2022-08-23T16:44:00;29.70;74.00
58582;DHT22;44361;51.476;5.700;2022-08-23T16:46:26;29.60;74.50
58582;DHT22;44361;51.476;5.700;2022-08-23T16:48:53;29.60;73.90
58582;DHT22;44361;51.476;5.700;2022-08-23T16:51:18;29.90;73.80
58582;DHT22;44361;51.476;5.700;2022-08-23T16:53:44;30.10;73.40
58582;DHT22;44361;51.476;5.700;2022-08-23T16:56:10;30.30;73.40
58582;DHT22;44361;51.476;5.700;2022-08-23T16:58:36;30.20;73.30
58582;DHT22;44361;51.476;5.700;2022-08-23T17:01:02;30.00;73.00
58582;DHT22;44361;51.476;5.700;2022-08-23T17:03:28;29.70;73.90
58582;DHT22;44361;51.476;5.700;2022-08-23T17:05:54;29.40;75.10
58582;DHT22;44361;51.476;5.700;2022-08-23T17:08:20;29.20;75.50
58582;DHT22;44361;51.476;5.700;2022-08-23T17:10:45;29.00;75.90
58582;DHT22;44361;51.476;5.700;2022-08-23T17:13:13;28.90;76.40
58582;DHT22;44361;51.476;5.700;2022-08-23T17:15:39;28.70;77.60
58582;DHT22;44361;51.476;5.700;2022-08-23T17:18:05;28.60;77.40
58582;DHT22;44361;51.476;5.700;2022-08-23T17:20:34;28.50;78.30
58582;DHT22;44361;51.476;5.700;2022-08-23T17:23:00;28.30;78.00
58582;DHT22;44361;51.476;5.700;2022-08-23T17:25:26;28.20;78.50
58582;DHT22;44361;51.476;5.700;2022-08-23T17:27:52;28.10;79.10
58582;DHT22;44361;51.476;5.700;2022-08-23T17:30:20;28.00;79.60